createdAt,value
2022-12-18T00:02:17.127Z,7.34
2022-12-18T00:04:43.825Z,7.29
2022-12-18T00:07:10.475Z,7.26
2022-12-18T00:09:39.750Z,7.15
2022-12-18T00:14:43.062Z,7.45
2022-12-18T00:17:09.687Z,7.42
2022-12-18T00:19:36.462Z,7.45
2022-12-18T00:22:03.111Z,7.40
2022-12-18T00:24:29.721Z,7.36
2022-12-18T00:26:56.310Z,7.41
2022-12-18T00:29:22.973Z,7.31
2022-12-18T00:31:49.762Z,7.31
2022-12-18T00:34:16.474Z,7.44
2022-12-18T00:36:43.121Z,7.45
2022-12-18T00:39:10.839Z,7.46
2022-12-18T00:41:37.530Z,7.47
2022-12-18T00:44:04.318Z,7.54
2022-12-18T00:46:30.970Z,7.45
2022-12-18T00:48:57.708Z,7.48
2022-12-18T00:51:24.792Z,7.59
2022-12-18T00:53:51.428Z,7.63
2022-12-18T00:56:18.080Z,7.72
2022-12-18T00:58:44.696Z,7.75
2022-12-18T01:01:11.583Z,7.83
2022-12-18T01:03:38.541Z,7.71
2022-12-18T01:06:09.257Z,7.69
2022-12-18T01:08:35.901Z,7.62
2022-12-18T01:11:07.739Z,7.52
2022-12-18T01:13:34.482Z,7.16
2022-12-18T01:16:01.202Z,7.20
2022-12-18T01:18:27.906Z,7.05
2022-12-18T01:20:54.551Z,7.10
2022-12-18T01:23:21.242Z,7.12
2022-12-18T01:25:47.851Z,7.15
2022-12-18T01:28:14.442Z,7.14
2022-12-18T01:30:41.091Z,7.22
2022-12-18T01:33:07.740Z,7.23
2022-12-18T01:35:34.380Z,7.38
2022-12-18T01:38:01.135Z,6.85
2022-12-18T01:40:27.723Z,6.75
2022-12-18T01:42:54.660Z,6.76
2022-12-18T01:45:24.167Z,6.60
2022-12-18T01:47:52.347Z,6.51
2022-12-18T01:50:22.869Z,6.60
2022-12-18T01:52:54.729Z,6.61
2022-12-18T01:55:23.283Z,6.61
2022-12-18T01:57:53.891Z,6.45
2022-12-18T02:00:21.163Z,6.53
2022-12-18T02:02:48.047Z,6.43
2022-12-18T02:05:20.234Z,6.43
2022-12-18T02:08:03.003Z,6.52
2022-12-18T02:10:32.784Z,6.54
2022-12-18T02:13:22.404Z,6.50
2022-12-18T02:16:07.154Z,6.22
2022-12-18T02:18:36.044Z,5.99
2022-12-18T02:21:46.589Z,5.87
2022-12-18T02:24:25.513Z,5.62
2022-12-18T02:26:54.405Z,5.61
2022-12-18T02:29:25.367Z,5.60
2022-12-18T02:31:54.620Z,5.59
2022-12-18T02:34:22.014Z,5.64
2022-12-18T02:36:48.783Z,5.73
2022-12-18T02:39:15.395Z,5.65
2022-12-18T02:41:42.997Z,5.68
2022-12-18T02:44:11.187Z,5.77
2022-12-18T02:46:45.770Z,5.74
2022-12-18T02:49:18.597Z,5.61
2022-12-18T02:52:06.633Z,5.67
2022-12-18T02:54:39.298Z,5.93
2022-12-18T02:57:30.036Z,6.01
2022-12-18T03:00:05.547Z,6.09
2022-12-18T03:03:00.481Z,6.22
2022-12-18T03:05:39.715Z,6.29
2022-12-18T03:08:06.173Z,6.52
2022-12-18T03:10:34.989Z,6.35
2022-12-18T03:13:06.944Z,6.22
2022-12-18T03:15:39.705Z,6.28
2022-12-18T03:18:12.083Z,6.22
2022-12-18T03:20:38.685Z,6.31
2022-12-18T03:23:10.956Z,6.54
2022-12-18T03:25:40.217Z,6.76
2022-12-18T03:28:06.817Z,6.53
2022-12-18T03:30:34.129Z,6.58
2022-12-18T03:33:06.323Z,6.75
2022-12-18T03:35:38.886Z,6.87
2022-12-18T03:38:05.601Z,6.90
2022-12-18T03:40:46.304Z,6.93
2022-12-18T03:43:42.710Z,6.86
2022-12-18T03:46:27.140Z,7.07
2022-12-18T03:48:57.256Z,7.16
2022-12-18T03:51:43.223Z,7.13
2022-12-18T03:54:09.860Z,7.04
2022-12-18T03:56:48.099Z,7.04
2022-12-18T03:59:14.967Z,7.09
2022-12-18T04:01:43.908Z,7.05
2022-12-18T04:04:10.685Z,7.11
2022-12-18T04:06:37.367Z,6.95
2022-12-18T04:09:04.199Z,6.99
2022-12-18T04:11:30.800Z,7.06
2022-12-18T04:13:58.239Z,6.98
2022-12-18T04:16:27.564Z,7.07
2022-12-18T04:18:54.357Z,7.02
2022-12-18T04:21:21.325Z,7.04
2022-12-18T04:23:47.992Z,6.98
2022-12-18T04:26:14.642Z,6.94
2022-12-18T04:28:41.255Z,6.90
2022-12-18T04:31:07.973Z,6.87
2022-12-18T04:33:34.661Z,6.81
2022-12-18T04:36:01.260Z,6.69
2022-12-18T04:38:28.043Z,6.58
2022-12-18T04:40:54.676Z,6.65
2022-12-18T04:43:21.395Z,6.56
2022-12-18T04:45:48.157Z,6.67
2022-12-18T04:48:14.773Z,6.73
2022-12-18T04:50:41.410Z,6.85
2022-12-18T04:53:08.071Z,6.69
2022-12-18T04:55:35.202Z,6.86
2022-12-18T04:58:01.808Z,6.67
2022-12-18T05:00:28.469Z,6.77
2022-12-18T05:02:55.619Z,6.80
2022-12-18T05:05:22.409Z,6.82
2022-12-18T05:07:49.029Z,6.85
2022-12-18T05:10:15.617Z,6.93
2022-12-18T05:12:42.256Z,6.97
2022-12-18T05:15:09.344Z,7.08
2022-12-18T05:17:36.040Z,7.00
2022-12-18T05:20:02.641Z,6.95
2022-12-18T05:22:29.249Z,7.05
2022-12-18T05:24:55.892Z,6.97
2022-12-18T05:27:22.532Z,6.99
2022-12-18T05:29:49.147Z,7.11
2022-12-18T05:32:15.811Z,6.82
2022-12-18T05:34:42.437Z,6.59
2022-12-18T05:37:09.055Z,6.74
2022-12-18T05:39:35.713Z,6.82
2022-12-18T05:42:02.331Z,7.02
2022-12-18T05:44:28.917Z,6.74
2022-12-18T05:46:55.693Z,6.98
2022-12-18T05:49:22.377Z,6.70
2022-12-18T05:51:48.965Z,6.81
2022-12-18T05:54:15.611Z,6.97
2022-12-18T05:56:48.401Z,7.00
2022-12-18T05:59:15.410Z,6.88
2022-12-18T06:01:42.521Z,7.02
2022-12-18T06:04:09.326Z,7.04
2022-12-18T06:06:35.985Z,6.95
2022-12-18T06:09:02.696Z,7.11
2022-12-18T06:11:29.284Z,7.15
2022-12-18T06:13:58.929Z,6.90
2022-12-18T06:16:26.957Z,6.59
2022-12-18T06:18:53.638Z,6.57
2022-12-18T06:21:20.329Z,6.45
2022-12-18T06:23:46.969Z,6.59
2022-12-18T06:26:13.767Z,6.48
2022-12-18T06:28:40.437Z,6.57
2022-12-18T06:31:07.275Z,6.79
2022-12-18T06:33:34.299Z,6.90
2022-12-18T06:36:01.942Z,6.85
2022-12-18T06:38:28.610Z,6.79
2022-12-18T06:40:55.249Z,6.92
2022-12-18T06:43:21.880Z,6.88
2022-12-18T06:45:48.575Z,6.60
2022-12-18T06:48:15.254Z,6.85
2022-12-18T06:50:44.691Z,6.97
2022-12-18T06:53:11.393Z,7.04
2022-12-18T06:55:38.185Z,7.08
2022-12-18T06:58:05.337Z,7.03
2022-12-18T07:00:32.148Z,7.10
2022-12-18T07:02:58.845Z,6.98
2022-12-18T07:05:25.485Z,7.13
2022-12-18T07:07:52.175Z,7.21
2022-12-18T07:10:18.993Z,7.15
2022-12-18T07:12:45.635Z,7.15
2022-12-18T07:15:12.294Z,7.30
2022-12-18T07:17:38.908Z,7.23
2022-12-18T07:20:05.786Z,7.24
2022-12-18T07:22:32.429Z,7.41
2022-12-18T07:24:59.016Z,7.46
2022-12-18T07:27:25.622Z,7.56
2022-12-18T07:29:52.744Z,7.42
2022-12-18T07:32:19.372Z,7.55
2022-12-18T07:34:46.013Z,7.32
2022-12-18T07:37:13.971Z,7.38
2022-12-18T07:39:41.440Z,7.50
2022-12-18T07:42:08.092Z,7.57
2022-12-18T07:44:34.911Z,7.58
2022-12-18T07:47:01.548Z,7.58
2022-12-18T07:49:28.832Z,7.69
2022-12-18T07:51:58.134Z,7.67
2022-12-18T07:54:25.313Z,7.82
2022-12-18T07:56:52.118Z,7.76
2022-12-18T07:59:18.978Z,7.78
2022-12-18T08:01:45.700Z,7.76
2022-12-18T08:04:13.562Z,7.99
2022-12-18T08:06:43.634Z,7.98
2022-12-18T08:09:12.804Z,7.88
2022-12-18T08:11:39.416Z,7.87
2022-12-18T08:14:06.012Z,7.74
2022-12-18T08:16:32.738Z,7.97
2022-12-18T08:18:59.417Z,8.04
2022-12-18T08:21:27.939Z,8.03
2022-12-18T08:23:56.057Z,8.07
2022-12-18T08:26:23.147Z,8.06
2022-12-18T08:28:50.396Z,8.08
2022-12-18T08:31:18.111Z,8.19
2022-12-18T08:33:44.880Z,8.19
2022-12-18T08:36:11.534Z,8.23
2022-12-18T08:38:38.242Z,8.28
2022-12-18T08:41:06.378Z,8.30
2022-12-18T08:43:33.011Z,8.32
2022-12-18T08:45:59.728Z,8.26
2022-12-18T08:48:26.534Z,8.01
2022-12-18T08:50:59.789Z,7.92
2022-12-18T08:53:29.246Z,7.85
2022-12-18T08:55:59.385Z,7.99
2022-12-18T08:58:26.073Z,7.98
2022-12-18T09:00:52.926Z,8.06
2022-12-18T09:03:19.807Z,8.21
2022-12-18T09:05:46.627Z,8.27
2022-12-18T09:08:13.312Z,8.38
2022-12-18T09:10:46.891Z,8.40
2022-12-18T09:13:13.702Z,8.16
2022-12-18T09:15:43.936Z,7.96
2022-12-18T09:18:10.613Z,7.71
2022-12-18T09:20:37.905Z,7.99
2022-12-18T09:23:04.993Z,7.93
2022-12-18T09:25:31.886Z,7.88
2022-12-18T09:27:58.492Z,7.63
2022-12-18T09:30:25.126Z,7.39
2022-12-18T09:32:51.823Z,7.29
2022-12-18T09:35:18.567Z,7.60
2022-12-18T09:37:45.296Z,7.63
2022-12-18T09:40:26.485Z,7.62
2022-12-18T09:42:58.417Z,7.78
2022-12-18T09:45:25.039Z,7.86
2022-12-18T09:47:51.695Z,7.77
2022-12-18T09:50:24.364Z,7.91
2022-12-18T09:52:54.337Z,7.52
2022-12-18T09:55:37.600Z,7.42
2022-12-18T09:58:32.102Z,7.37
2022-12-18T10:00:58.771Z,7.25
2022-12-18T10:03:25.555Z,7.19
2022-12-18T10:06:04.312Z,7.25
2022-12-18T10:08:37.160Z,7.45
2022-12-18T10:11:29.398Z,7.54
2022-12-18T10:13:59.865Z,7.63
2022-12-18T10:16:32.499Z,7.69
2022-12-18T10:19:27.357Z,7.79
2022-12-18T10:22:08.981Z,7.83
2022-12-18T10:25:00.756Z,7.80
2022-12-18T10:27:27.508Z,7.77
2022-12-18T10:29:54.296Z,7.93
2022-12-18T10:32:25.696Z,7.96
2022-12-18T10:34:59.871Z,8.04
2022-12-18T10:37:28.927Z,8.06
2022-12-18T10:40:20.159Z,8.10
2022-12-18T10:43:02.635Z,8.13
2022-12-18T10:45:29.372Z,8.12
2022-12-18T10:47:56.008Z,8.04
2022-12-18T10:51:01.403Z,7.62
2022-12-18T10:53:23.560Z,7.64
2022-12-18T10:55:50.197Z,7.75
2022-12-18T10:58:24.967Z,7.98
2022-12-18T11:01:11.650Z,7.98
2022-12-18T11:03:42.419Z,7.76
2022-12-18T11:06:13.798Z,7.71
2022-12-18T11:08:41.604Z,7.75
2022-12-18T11:11:28.561Z,7.94
2022-12-18T11:14:13.378Z,8.14
2022-12-18T11:17:03.088Z,8.15
2022-12-18T11:19:36.393Z,8.28
2022-12-18T11:22:22.173Z,8.48
2022-12-18T11:25:30.003Z,8.46
2022-12-18T11:27:56.725Z,8.45
2022-12-18T11:30:38.262Z,8.56
2022-12-18T11:33:16.583Z,8.46
2022-12-18T11:35:56.923Z,8.46
2022-12-18T11:38:27.581Z,8.54
2022-12-18T11:41:10.503Z,7.80
2022-12-18T11:43:40.123Z,7.64
2022-12-18T11:46:17.725Z,7.22
2022-12-18T11:48:47.158Z,7.21
2022-12-18T11:51:19.763Z,7.64
2022-12-18T11:53:46.508Z,7.81
2022-12-18T11:56:28.589Z,8.17
2022-12-18T11:59:34.081Z,8.43
2022-12-18T12:02:19.310Z,8.56
2022-12-18T12:05:04.624Z,8.37
2022-12-18T12:07:49.919Z,8.48
2022-12-18T12:10:22.325Z,8.39
2022-12-18T12:13:13.490Z,8.49
2022-12-18T12:15:50.202Z,8.28
2022-12-18T12:18:38.185Z,8.26
2022-12-18T12:21:14.171Z,8.50
2022-12-18T12:23:46.762Z,8.58
2022-12-18T12:26:21.952Z,8.70
2022-12-18T12:28:48.472Z,8.62
2022-12-18T12:31:27.298Z,8.44
2022-12-18T12:34:24.137Z,8.25
2022-12-18T12:37:17.428Z,8.47
2022-12-18T12:39:44.761Z,8.52
2022-12-18T12:42:30.353Z,8.59
2022-12-18T12:44:57.496Z,8.70
2022-12-18T12:47:29.190Z,8.65
2022-12-18T12:49:56.471Z,8.78
2022-12-18T12:52:35.977Z,8.89
2022-12-18T12:55:03.490Z,8.97
2022-12-18T12:57:35.698Z,9.08
2022-12-18T13:00:15.763Z,9.12
2022-12-18T13:02:53.621Z,9.17
2022-12-18T13:05:26.195Z,9.10
2022-12-18T13:08:12.430Z,9.08
2022-12-18T13:10:42.510Z,8.94
2022-12-18T13:13:12.936Z,8.99
2022-12-18T13:15:43.363Z,8.83
2022-12-18T13:18:10.165Z,8.90
2022-12-18T13:20:37.929Z,8.88
2022-12-18T13:23:26.542Z,8.79
2022-12-18T13:26:08.117Z,8.76
2022-12-18T13:28:34.944Z,8.69
2022-12-18T13:31:02.174Z,8.75
2022-12-18T13:34:16.460Z,8.82
2022-12-18T13:36:34.536Z,8.79
2022-12-18T13:39:35.141Z,8.77
2022-12-18T13:42:08.308Z,8.80
2022-12-18T13:44:40.279Z,8.67
2022-12-18T13:47:35.046Z,8.75
2022-12-18T13:50:03.205Z,8.72
2022-12-18T13:52:35.981Z,8.65
2022-12-18T13:55:03.498Z,8.62
2022-12-18T13:57:38.271Z,8.57
2022-12-18T14:00:23.725Z,8.58
2022-12-18T14:02:50.817Z,8.55
2022-12-18T14:05:27.237Z,8.11
2022-12-18T14:07:54.813Z,8.11
2022-12-18T14:13:10.174Z,8.18
2022-12-18T14:15:41.218Z,8.25
2022-12-18T14:18:30.335Z,8.33
2022-12-18T14:20:58.877Z,8.42
2022-12-18T14:23:35.529Z,8.34
2022-12-18T14:26:05.955Z,8.13
2022-12-18T14:28:33.032Z,7.95
2022-12-18T14:30:59.790Z,7.85
2022-12-18T14:33:27.526Z,8.11
2022-12-18T14:35:56.816Z,8.12
2022-12-18T14:38:35.945Z,8.14
2022-12-18T14:41:05.997Z,8.19
2022-12-18T14:43:35.128Z,8.16
2022-12-18T14:46:01.946Z,8.15
2022-12-18T14:48:37.021Z,8.21
2022-12-18T14:51:13.846Z,7.91
2022-12-18T14:53:42.680Z,7.96
2022-12-18T14:56:25.419Z,7.74
2022-12-18T14:58:55.419Z,7.84
2022-12-18T15:01:27.344Z,7.91
2022-12-18T15:03:54.508Z,8.06
2022-12-18T15:06:37.770Z,8.02
2022-12-18T15:09:25.283Z,8.13
2022-12-18T15:11:56.885Z,8.18
2022-12-18T15:14:35.483Z,8.11
2022-12-18T15:17:03.216Z,8.05
2022-12-18T15:19:40.424Z,7.88
2022-12-18T15:22:28.023Z,7.75
2022-12-18T15:24:55.415Z,7.90
2022-12-18T15:27:25.131Z,7.72
2022-12-18T15:30:10.113Z,7.70
2022-12-18T15:32:37.621Z,7.81
2022-12-18T15:35:25.293Z,7.86
2022-12-18T15:37:52.499Z,7.90
2022-12-18T15:40:20.977Z,7.83
2022-12-18T15:42:47.857Z,7.85
2022-12-18T15:45:15.229Z,7.72
2022-12-18T15:47:41.952Z,7.62
2022-12-18T15:50:09.833Z,7.67
2022-12-18T15:52:47.071Z,7.65
2022-12-18T15:55:21.324Z,7.59
2022-12-18T15:57:47.940Z,7.54
2022-12-18T16:00:14.877Z,7.58
2022-12-18T16:02:42.949Z,7.59
2022-12-18T16:05:14.713Z,7.57
2022-12-18T16:07:41.395Z,7.54
2022-12-18T16:10:08.333Z,7.61
2022-12-18T16:12:35.033Z,7.59
2022-12-18T16:15:03.291Z,7.61
2022-12-18T16:17:29.989Z,7.56
2022-12-18T16:19:56.906Z,7.56
2022-12-18T16:22:25.252Z,7.70
2022-12-18T16:24:52.324Z,7.64
2022-12-18T16:27:18.982Z,7.69
2022-12-18T16:29:45.808Z,7.76
2022-12-18T16:32:14.115Z,7.71
2022-12-18T16:34:40.792Z,7.82
2022-12-18T16:37:10.293Z,7.87
2022-12-18T16:39:37.441Z,7.91
2022-12-18T16:42:12.075Z,7.95
2022-12-18T16:44:38.665Z,7.96
2022-12-18T16:47:05.325Z,7.92
2022-12-18T16:49:33.268Z,7.93
2022-12-18T16:51:59.904Z,7.98
2022-12-18T16:54:26.570Z,7.96
2022-12-18T16:56:53.227Z,7.86
2022-12-18T16:59:20.003Z,7.93
2022-12-18T17:01:46.855Z,8.00
2022-12-18T17:04:13.547Z,7.99
2022-12-18T17:06:42.054Z,8.11
2022-12-18T17:09:11.446Z,7.98
2022-12-18T17:11:38.091Z,8.05
2022-12-18T17:14:13.341Z,8.08
2022-12-18T17:16:40.224Z,8.09
2022-12-18T17:19:12.128Z,8.12
2022-12-18T17:21:41.982Z,8.07
2022-12-18T17:24:08.670Z,8.10
2022-12-18T17:26:35.311Z,8.13
2022-12-18T17:29:01.972Z,8.02
2022-12-18T17:31:29.333Z,8.18
2022-12-18T17:33:56.165Z,8.15
2022-12-18T17:36:22.869Z,8.18
2022-12-18T17:38:53.221Z,8.21
2022-12-18T17:41:20.020Z,8.29
2022-12-18T17:43:59.573Z,8.17
2022-12-18T17:46:26.871Z,8.26
2022-12-18T17:48:55.900Z,8.32
2022-12-18T17:51:22.612Z,8.25
2022-12-18T17:53:49.214Z,8.22
2022-12-18T17:56:16.875Z,8.10
2022-12-18T17:58:43.642Z,8.10
2022-12-18T18:01:14.786Z,8.04
2022-12-18T18:03:43.176Z,7.95
2022-12-18T18:06:10.320Z,7.81
2022-12-18T18:08:37.044Z,7.81
2022-12-18T18:11:07.672Z,7.78
2022-12-18T18:13:38.660Z,7.80
2022-12-18T18:16:08.337Z,7.83
2022-12-18T18:18:35.015Z,7.67
2022-12-18T18:21:08.441Z,7.71
2022-12-18T18:23:35.895Z,7.81
2022-12-18T18:26:06.557Z,7.69
2022-12-18T18:28:33.856Z,7.60
2022-12-18T18:31:06.891Z,7.73
2022-12-18T18:33:33.840Z,7.70
2022-12-18T18:36:00.465Z,7.64
2022-12-18T18:38:27.511Z,7.60
2022-12-18T18:41:03.597Z,7.57
2022-12-18T18:43:30.247Z,7.72
2022-12-18T18:45:57.541Z,7.71
2022-12-18T18:48:26.086Z,7.77
2022-12-18T18:50:59.531Z,7.83
2022-12-18T18:53:26.162Z,7.74
2022-12-18T18:56:26.170Z,7.70
2022-12-18T18:58:39.387Z,7.72
2022-12-18T19:01:07.915Z,7.77
2022-12-18T19:03:35.642Z,7.94
2022-12-18T19:06:02.283Z,7.95
2022-12-18T19:08:30.814Z,7.99
2022-12-18T19:10:58.569Z,7.89
2022-12-18T19:13:26.376Z,7.91
2022-12-18T19:16:05.121Z,7.94
2022-12-18T19:18:31.760Z,7.96
2022-12-18T19:21:02.096Z,8.05
2022-12-18T19:23:29.199Z,8.14
2022-12-18T19:26:17.050Z,8.14
2022-12-18T19:28:48.618Z,8.17
2022-12-18T19:31:18.823Z,8.17
2022-12-18T19:33:49.533Z,8.25
2022-12-18T19:36:24.124Z,8.24
2022-12-18T19:38:51.972Z,8.21
2022-12-18T19:41:18.836Z,8.18
2022-12-18T19:43:46.934Z,8.33
2022-12-18T19:46:19.175Z,8.02
2022-12-18T19:48:46.694Z,8.09
2022-12-18T19:51:24.571Z,8.26
2022-12-18T19:53:56.401Z,8.35
2022-12-18T19:56:26.226Z,8.28
2022-12-18T19:58:54.728Z,8.31
2022-12-18T20:01:22.501Z,8.30
2022-12-18T20:03:52.591Z,8.42
2022-12-18T20:06:26.107Z,8.38
2022-12-18T20:08:52.834Z,8.39
2022-12-18T20:11:21.370Z,8.34
2022-12-18T20:13:48.062Z,8.35
2022-12-18T20:16:14.754Z,8.32
2022-12-18T20:18:41.534Z,8.44
2022-12-18T20:21:13.709Z,8.36
2022-12-18T20:23:41.016Z,8.42
2022-12-18T20:26:08.668Z,8.41
2022-12-18T20:28:35.468Z,8.39
2022-12-18T20:31:02.733Z,8.42
2022-12-18T20:33:29.580Z,8.52
2022-12-18T20:36:03.258Z,8.53
2022-12-18T20:38:30.660Z,8.46
2022-12-18T20:40:58.671Z,8.36
2022-12-18T20:43:25.294Z,8.39
2022-12-18T20:45:51.987Z,8.53
2022-12-18T20:48:23.572Z,8.49
2022-12-18T20:51:09.496Z,8.51
2022-12-18T20:53:36.224Z,8.48
2022-12-18T20:56:15.037Z,8.34
2022-12-18T20:58:45.546Z,8.46
2022-12-18T21:01:14.009Z,8.47
2022-12-18T21:03:41.499Z,8.60
2022-12-18T21:06:08.208Z,8.56
2022-12-18T21:08:34.903Z,8.51
2022-12-18T21:11:13.474Z,8.62
2022-12-18T21:13:40.332Z,8.78
2022-12-18T21:16:07.146Z,8.70
2022-12-18T21:18:35.237Z,8.64
2022-12-18T21:21:02.200Z,8.62
2022-12-18T21:23:29.132Z,8.63
2022-12-18T21:25:57.556Z,8.60
2022-12-18T21:28:24.215Z,8.62
2022-12-18T21:30:51.166Z,8.61
2022-12-18T21:33:17.861Z,8.67
2022-12-18T21:35:44.506Z,8.78
2022-12-18T21:38:11.186Z,8.97
2022-12-18T21:40:39.185Z,8.82
2022-12-18T21:43:05.833Z,8.88
2022-12-18T21:45:32.430Z,8.94
2022-12-18T21:47:59.026Z,8.91
2022-12-18T21:50:25.743Z,8.88
2022-12-18T21:52:52.384Z,8.90
2022-12-18T21:55:19.051Z,8.89
2022-12-18T21:57:45.690Z,8.90
2022-12-18T22:00:18.537Z,8.86
2022-12-18T22:02:47.027Z,8.96
2022-12-18T22:05:13.872Z,8.93
2022-12-18T22:07:40.541Z,8.87
2022-12-18T22:10:07.700Z,8.84
2022-12-18T22:12:34.352Z,8.99
2022-12-18T22:15:01.460Z,8.97
2022-12-18T22:17:28.179Z,9.04
2022-12-18T22:19:54.891Z,8.94
2022-12-18T22:22:21.577Z,8.96
2022-12-18T22:24:48.232Z,9.02
2022-12-18T22:27:14.894Z,9.05
2022-12-18T22:29:41.503Z,8.99
2022-12-18T22:32:09.718Z,8.93
2022-12-18T22:34:38.648Z,8.94
2022-12-18T22:37:05.385Z,8.94
2022-12-18T22:39:32.080Z,8.97
2022-12-18T22:41:58.837Z,9.07
2022-12-18T22:44:26.517Z,9.09
2022-12-18T22:47:05.628Z,8.98
2022-12-18T22:49:34.820Z,9.09
2022-12-18T22:52:02.266Z,9.15
2022-12-18T22:54:28.904Z,9.13
2022-12-18T22:56:55.515Z,9.26
2022-12-18T22:59:22.703Z,9.34
2022-12-18T23:01:49.898Z,9.17
2022-12-18T23:04:17.459Z,9.24
2022-12-18T23:06:44.261Z,9.25
2022-12-18T23:09:19.281Z,9.18
2022-12-18T23:11:46.084Z,9.22
2022-12-18T23:14:12.952Z,9.11
2022-12-18T23:16:39.566Z,9.14
2022-12-18T23:19:06.307Z,9.07
2022-12-18T23:21:32.916Z,9.25
2022-12-18T23:24:00.684Z,9.29
2022-12-18T23:26:27.503Z,9.32
2022-12-18T23:28:54.184Z,9.26
2022-12-18T23:31:28.599Z,9.27
2022-12-18T23:33:56.236Z,9.15
2022-12-18T23:36:23.038Z,9.29
2022-12-18T23:38:54.167Z,9.31
2022-12-18T23:41:21.672Z,9.25
2022-12-18T23:43:48.459Z,9.24
2022-12-18T23:46:19.107Z,9.19
2022-12-18T23:48:45.892Z,9.29
2022-12-18T23:51:13.202Z,9.22
2022-12-18T23:53:39.957Z,9.25
2022-12-18T23:56:07.103Z,9.25
2022-12-18T23:58:33.872Z,9.15
